Engadine, Michigan
Current Conditions -  °F | °C
As of 5:14 PM on Thursday 27 Nov 2014 (Local Time) from KERY Reporting Station
Broken Clouds Broken Clouds  
Wind Chill:   Ceiling: 3600
Heat Index: 13°   Visibility: 10mi
Dew Point:   Wind: 10mph
Humidity: 78%   Direction: 300°WNW
Pressure: 30.25"   Gusts: NA
Location:  46.12°N, 85.57°W
Report Text: KERY 272214Z AUTO 30009KT 10SM SCT017 SCT024 BKN036 M11/M14 A3025 RMK AO2 T11061137
Loading
Personal Weather Stations






























Interactive Weather Map New forecast layout! Learn more

10-Day Weather Forecast

Advertisements
Track Severe Weather on mobile